Terminal Aerodrome Forecast
Issued by NWS

Home | Current Version | Previous Version | Text Only | Print | Product List | Glossary On
Versions: 1 2 3 4 5 6 7 8 9 10 11 12 13 14 15 16 17 18 19 20 21 22 23
745
FTUS43 KILX 201444 AAB
TAFBMI
TAF AMD
KBMI 201444Z 2015/2112 15015KT 2SM BR OVC004
     FM201700 16016G20KT 6SM BR OVC010
     FM201900 16014G22KT P6SM SCT040 BKN200
     FM210200 18015G22KT 5SM -SHRA BR VCTS OVC030CB
     FM210700 21011KT 4SM -SHRA BR VCTS OVC015CB
     FM211000 22008KT 2SM BR VCSH OVC004=

USA.gov is the U.S. government's official web portal to all federal, state and local government web resources and services.